AVA8404 SKPE-SKRG
Flight info
| Callsign | AVA8404 |
|---|---|
| Flight time | N/A |
| Altitude | 17000 |
| Route | NEBOV2B MATRO W3 ISVON ISVON4A |
| Aircraft | A320/M-SDE3FGHIRWY/LB1 |
Departure
| Time | 2026-04-30 00:38 |
|---|---|
| Airport | Matecaña International Airport (SKPE) |
Arrival
| Time | N/A |
|---|---|
| Airport | Jose Maria Córdova International Airport (SKRG) |
| Time | Latitude | Longitude | Altitude | Speed | Heading |
|---|---|---|---|---|---|
| 2026-04-29 23:51 | 4.81502 | -75.73713 | 4427 ft | 0 kts | 342° |
| 2026-04-30 00:30 | 4.81480 | -75.73708 | 4429 ft | 4 kts | 1° |
| 2026-04-30 00:30 | 4.81456 | -75.73714 | 4429 ft | 4 kts | 42° |
| 2026-04-30 00:31 | 4.81448 | -75.73723 | 4428 ft | 4 kts | 72° |
| 2026-04-30 00:31 | 4.81456 | -75.73697 | 4429 ft | 4 kts | 72° |
| 2026-04-30 00:31 | 4.81457 | -75.73692 | 4428 ft | 0 kts | 72° |
| 2026-04-30 00:33 | 4.81460 | -75.73685 | 4429 ft | 3 kts | 72° |
| 2026-04-30 00:34 | 4.81472 | -75.73646 | 4427 ft | 8 kts | 73° |
| 2026-04-30 00:34 | 4.81495 | -75.73574 | 4428 ft | 13 kts | 72° |
| 2026-04-30 00:34 | 4.81504 | -75.73490 | 4428 ft | 1 kts | 117° |
| 2026-04-30 00:35 | 4.81497 | -75.73483 | 4430 ft | 4 kts | 134° |
| 2026-04-30 00:36 | 4.81459 | -75.73468 | 4429 ft | 8 kts | 158° |
| 2026-04-30 00:36 | 4.81446 | -75.73405 | 4430 ft | 14 kts | 71° |
| 2026-04-30 00:36 | 4.81485 | -75.73285 | 4428 ft | 22 kts | 72° |
| 2026-04-30 00:36 | 4.81533 | -75.73136 | 4429 ft | 13 kts | 72° |
| 2026-04-30 00:37 | 4.81580 | -75.73059 | 4428 ft | 7 kts | 77° |
| 2026-04-30 00:37 | 4.81555 | -75.73067 | 4428 ft | 7 kts | 253° |
| 2026-04-30 00:37 | 4.81554 | -75.73071 | 4428 ft | 0 kts | 254° |
| 2026-04-30 00:37 | 4.81552 | -75.73078 | 4428 ft | 6 kts | 253° |
| 2026-04-30 00:38 | 4.81466 | -75.73345 | 4429 ft | 81 kts | 251° |
| 2026-04-30 00:38 | 4.81219 | -75.74109 | 4416 ft | 147 kts | 252° |
| 2026-04-30 00:38 | 4.80868 | -75.75221 | 4684 ft | 172 kts | 250° |
| 2026-04-30 00:38 | 4.80516 | -75.76347 | 5492 ft | 167 kts | 252° |
| 2026-04-30 00:39 | 4.80165 | -75.77435 | 6100 ft | 163 kts | 251° |
| 2026-04-30 00:39 | 4.79814 | -75.78510 | 6651 ft | 161 kts | 252° |
| 2026-04-30 00:39 | 4.79647 | -75.79021 | 6904 ft | 160 kts | 252° |
| 2026-04-30 00:39 | 4.79445 | -75.79639 | 7181 ft | 159 kts | 252° |
| 2026-04-30 00:40 | 4.79101 | -75.80691 | 7621 ft | 161 kts | 252° |
| 2026-04-30 00:40 | 4.78843 | -75.81848 | 7804 ft | 183 kts | 275° |
| 2026-04-30 00:40 | 4.79406 | -75.83033 | 7973 ft | 203 kts | 320° |
| 2026-04-30 00:40 | 4.80730 | -75.83683 | 8183 ft | 224 kts | 341° |
| 2026-04-30 00:41 | 4.82283 | -75.84192 | 8455 ft | 245 kts | 343° |
| 2026-04-30 00:41 | 4.83980 | -75.84713 | 8818 ft | 264 kts | 343° |
| 2026-04-30 00:41 | 4.85180 | -75.85065 | 9148 ft | 276 kts | 347° |
| 2026-04-30 00:41 | 4.87133 | -75.85030 | 9636 ft | 290 kts | 19° |
| 2026-04-30 00:42 | 4.89032 | -75.84219 | 10364 ft | 296 kts | 27° |